Time;durP1;ratioP1;P1;durP2;ratioP2;P2;SDS_P1;SDS_P2;PMS_P1;PMS_P2;Temp;Humidity;BMP_temperature;BMP_pressure;BME280_temperature;BME280_humidity;BME280_pressure;Samples;Min_cycle;Max_cycle;Signal;HPM_P1;HPM_P2
2021/07/19 00:02:07;;;;;;;4.00;3.60;;;;;;;22.16;100.00;97731.00;5043476;28;20263;-66
2021/07/19 00:04:41;;;;;;;3.70;3.40;;;;;;;21.99;100.00;97704.91;5039144;28;20201;-65
2021/07/19 00:07:08;;;;;;;3.67;3.37;;;;;;;22.17;100.00;97727.63;5041357;28;20201;-66
2021/07/19 00:09:35;;;;;;;4.23;3.83;;;;;;;22.16;100.00;97723.31;5044657;28;20259;-65
2021/07/19 00:12:02;;;;;;;4.17;3.80;;;;;;;21.46;100.00;97610.25;5041563;28;20225;-65
2021/07/19 00:14:29;;;;;;;4.00;3.60;;;;;;;22.18;100.00;97726.81;5039855;28;20632;-66
2021/07/19 00:16:55;;;;;;;4.23;3.83;;;;;;;22.17;100.00;97722.53;5036343;28;20264;-65
2021/07/19 00:19:22;;;;;;;4.40;3.97;;;;;;;22.18;100.00;97719.13;5036267;28;20229;-65
2021/07/19 00:21:48;;;;;;;4.23;3.83;;;;;;;22.18;100.00;97724.25;5041194;28;20253;-65
2021/07/19 00:24:15;;;;;;;4.27;3.70;;;;;;;22.19;100.00;97731.09;5046214;28;20301;-67
2021/07/19 00:26:42;;;;;;;4.10;3.70;;;;;;;22.12;100.00;97708.69;5040221;28;20786;-65
2021/07/19 00:29:08;;;;;;;4.33;3.57;;;;;;;22.19;100.00;97715.72;5040220;28;20197;-66
2021/07/19 00:31:35;;;;;;;4.07;3.63;;;;;;;21.15;100.00;97536.00;5044740;28;20228;-65
2021/07/19 00:34:02;;;;;;;3.60;3.30;;;;;;;22.19;100.00;97713.16;5042349;28;20197;-66
2021/07/19 00:36:30;;;;;;;3.93;3.57;;;;;;;22.18;100.00;97720.00;5039186;28;20689;-65
2021/07/19 00:38:56;;;;;;;3.77;3.40;;;;;;;22.17;100.00;97710.56;5043420;28;20259;-66
2021/07/19 00:41:23;;;;;;;4.63;3.87;;;;;;;22.10;100.00;97707.78;5044041;28;20312;-63
2021/07/19 00:43:50;;;;;;;4.27;3.87;;;;;;;22.16;100.00;97711.41;5039948;28;20292;-66
2021/07/19 00:46:16;;;;;;;4.07;3.67;;;;;;;21.79;100.00;97647.13;5040821;28;20495;-66
2021/07/19 00:48:43;;;;;;;3.87;3.57;;;;;;;21.07;100.00;97520.44;5045378;28;20624;-63
2021/07/19 00:51:11;;;;;;;4.17;3.77;;;;;;;22.09;100.00;97688.13;5039473;28;20283;-66
2021/07/19 00:53:37;;;;;;;4.27;3.73;;;;;;;22.15;100.00;97702.00;5025548;28;20284;-65
2021/07/19 00:56:05;;;;;;;4.23;3.83;;;;;;;21.99;100.00;97674.19;5041335;28;20249;-65
2021/07/19 00:58:32;;;;;;;3.60;3.30;;;;;;;22.17;100.00;97700.31;5028609;28;20300;-66
2021/07/19 01:00:59;;;;;;;3.50;3.20;;;;;;;22.17;100.00;97696.91;5038736;28;20293;-66
2021/07/19 01:03:26;;;;;;;3.93;3.63;;;;;;;22.17;100.00;97702.88;5042592;28;20212;-65
2021/07/19 01:05:53;;;;;;;3.63;3.33;;;;;;;22.17;100.00;97697.75;5036346;28;20276;-66
2021/07/19 01:08:20;;;;;;;3.63;3.33;;;;;;;22.06;100.00;97681.25;5039101;28;20205;-66
2021/07/19 01:10:47;;;;;;;4.93;3.90;;;;;;;22.17;100.00;97702.88;5045918;28;20287;-66
2021/07/19 01:13:14;;;;;;;3.57;3.27;;;;;;;22.17;100.00;97704.59;5043519;28;20207;-65
2021/07/19 01:15:41;;;;;;;4.00;3.70;;;;;;;22.18;100.00;97714.00;5045351;28;20290;-66
2021/07/19 01:18:09;;;;;;;4.07;3.67;;;;;;;22.18;100.00;97712.31;5041171;28;20250;-66
2021/07/19 01:21:17;;;;;;;3.87;3.50;;;;;;;22.18;100.00;97712.31;5039510;28;20320;-65
2021/07/19 01:24:09;;;;;;;3.90;3.50;;;;;;;22.19;100.00;97705.50;5012347;28;20203;-64
2021/07/19 01:26:50;;;;;;;4.23;3.83;;;;;;;22.19;100.00;97713.16;5036232;28;20252;-66
2021/07/19 01:29:17;;;;;;;5.43;3.90;;;;;;;22.19;100.00;97710.59;5043616;28;20208;-64
2021/07/19 01:31:44;;;;;;;3.77;3.40;;;;;;;22.18;100.00;97720.00;5037514;28;20292;-64
2021/07/19 01:34:30;;;;;;;3.97;3.60;;;;;;;22.19;100.00;97715.72;5046648;28;20391;-66
2021/07/19 01:37:05;;;;;;;3.70;3.40;;;;;;;20.97;100.00;97509.91;5037660;28;20244;-65
2021/07/19 01:39:32;;;;;;;4.40;4.00;;;;;;;21.90;100.00;97673.06;5012599;28;20258;-65
2021/07/19 01:41:59;;;;;;;4.30;3.60;;;;;;;22.17;100.00;97713.13;5038244;28;20244;-66
2021/07/19 01:44:25;;;;;;;3.73;3.40;;;;;;;22.19;100.00;97714.03;5037958;28;21008;-66
2021/07/19 01:46:52;;;;;;;3.57;3.27;;;;;;;22.19;100.00;97716.59;5039199;28;20237;-64
2021/07/19 01:49:19;;;;;;;3.93;3.60;;;;;;;22.08;100.00;97694.94;5042538;28;20201;-66
2021/07/19 01:51:46;;;;;;;3.53;3.23;;;;;;;22.19;100.00;97710.59;5023722;28;20232;-66
2021/07/19 01:54:13;;;;;;;4.63;3.70;;;;;;;22.01;100.00;97681.91;5040414;28;20742;-65
2021/07/19 01:56:40;;;;;;;3.77;3.37;;;;;;;21.11;100.00;97523.97;5022542;28;20251;-65
2021/07/19 01:59:07;;;;;;;3.70;3.40;;;;;;;22.19;100.00;97705.50;5026376;28;20240;-67
2021/07/19 02:01:33;;;;;;;3.43;3.13;;;;;;;21.95;100.00;97664.69;5040803;28;20729;-62
2021/07/19 02:04:00;;;;;;;4.13;3.73;;;;;;;22.20;100.00;97709.81;5005393;28;20555;-63
2021/07/19 02:06:27;;;;;;;3.97;3.53;;;;;;;21.98;100.00;97677.56;5040833;28;20307;-62
2021/07/19 02:08:54;;;;;;;3.50;3.20;;;;;;;22.21;100.00;97714.09;5025446;28;20581;-65
2021/07/19 02:11:27;;;;;;;3.97;3.50;;;;;;;22.20;100.00;97709.81;5040949;28;20651;-64
2021/07/19 02:13:53;;;;;;;3.83;3.47;;;;;;;22.14;100.00;97699.38;5041340;28;20303;-65
2021/07/19 02:16:21;;;;;;;3.60;3.30;;;;;;;22.20;100.00;97713.22;5023107;28;20224;-66
2021/07/19 02:18:48;;;;;;;4.17;3.30;;;;;;;22.21;100.00;97712.41;5038536;28;20282;-66
2021/07/19 02:21:14;;;;;;;4.13;3.73;;;;;;;22.22;100.00;97708.13;5037336;28;20244;-66
2021/07/19 02:23:41;;;;;;;3.97;3.57;;;;;;;22.18;100.00;97699.53;5026344;28;20308;-65
2021/07/19 02:26:07;;;;;;;3.23;2.93;;;;;;;22.08;100.00;97684.69;5036993;28;20341;-63
2021/07/19 02:28:34;;;;;;;3.37;3.07;;;;;;;22.25;100.00;97714.22;5043478;28;20228;-65
2021/07/19 02:31:03;;;;;;;3.97;3.57;;;;;;;22.26;100.00;97718.50;5040543;28;20201;-66
2021/07/19 02:33:32;;;;;;;3.60;3.30;;;;;;;22.27;100.00;97721.94;5037603;28;20252;-65
2021/07/19 02:35:58;;;;;;;3.67;3.37;;;;;;;22.28;100.00;97721.13;5038844;28;20771;-66
2021/07/19 02:38:25;;;;;;;3.30;3.00;;;;;;;21.78;100.00;97639.41;5038316;28;20228;-65
2021/07/19 02:40:52;;;;;;;3.40;3.10;;;;;;;22.30;100.00;97719.47;5027299;28;20209;-65
2021/07/19 02:43:20;;;;;;;3.70;3.30;;;;;;;22.30;100.00;97719.47;5033002;28;20678;-67
2021/07/19 02:45:47;;;;;;;3.40;3.10;;;;;;;22.20;100.00;97705.53;5049370;28;20248;-66
2021/07/19 02:48:14;;;;;;;4.20;3.37;;;;;;;22.32;100.00;97722.97;5028304;28;20238;-66
2021/07/19 02:50:42;;;;;;;3.57;3.13;;;;;;;22.33;100.00;97727.25;5041834;28;20278;-65
2021/07/19 02:53:10;;;;;;;3.27;3.03;;;;;;;22.34;100.00;97726.41;5040899;28;20297;-64
2021/07/19 02:55:37;;;;;;;3.80;3.50;;;;;;;21.70;100.00;97616.13;5038185;28;20316;-66
2021/07/19 02:58:05;;;;;;;3.63;3.30;;;;;;;22.24;100.00;97720.19;5039427;28;20225;-63
2021/07/19 03:00:32;;;;;;;3.67;3.30;;;;;;;21.55;100.00;97596.06;5042669;28;20225;-65
2021/07/19 03:03:05;;;;;;;3.50;3.20;;;;;;;22.09;100.00;97688.13;5044849;28;20811;-66
2021/07/19 03:05:37;;;;;;;3.60;3.30;;;;;;;21.83;100.00;97641.28;5037139;28;20328;-65
2021/07/19 03:08:04;;;;;;;3.90;3.60;;;;;;;22.38;100.00;97736.78;5025245;28;20297;-63
2021/07/19 03:10:32;;;;;;;3.30;3.00;;;;;;;22.32;100.00;97723.81;5035862;28;20648;-65
2021/07/19 03:13:01;;;;;;;3.53;3.23;;;;;;;22.23;100.00;97699.66;5037883;28;20308;-65
2021/07/19 03:15:29;;;;;;;3.27;3.00;;;;;;;22.39;100.00;97730.88;5041309;28;20304;-65
2021/07/19 03:17:56;;;;;;;3.50;3.20;;;;;;;22.41;100.00;97733.47;5043767;28;20205;-66
2021/07/19 03:20:23;;;;;;;3.63;3.33;;;;;;;22.41;100.00;97736.88;5042289;28;20252;-62
2021/07/19 03:22:52;;;;;;;3.07;2.80;;;;;;;22.36;100.00;97727.34;5027122;28;20255;-65
2021/07/19 03:25:24;;;;;;;3.40;3.10;;;;;;;22.42;100.00;97736.09;5042277;28;20222;-65
2021/07/19 03:27:52;;;;;;;3.47;3.13;;;;;;;22.42;100.00;97738.66;5039766;28;20251;-65
2021/07/19 03:30:18;;;;;;;7.97;3.37;;;;;;;22.09;100.00;97672.78;5044749;28;20201;-65
2021/07/19 03:32:45;;;;;;;3.40;3.10;;;;;;;22.14;100.00;97691.72;5043613;28;20236;-66
2021/07/19 03:35:14;;;;;;;3.47;3.17;;;;;;;22.28;100.00;97703.19;5020975;28;20347;-65
2021/07/19 03:37:41;;;;;;;3.50;3.20;;;;;;;22.26;100.00;97692.06;5041299;28;20212;-67
2021/07/19 03:40:08;;;;;;;3.60;3.30;;;;;;;22.41;100.00;97715.56;5040485;28;20228;-65
2021/07/19 03:42:35;;;;;;;5.47;2.93;;;;;;;22.44;100.00;97734.41;5043915;28;20244;-67
2021/07/19 03:45:01;;;;;;;3.40;3.13;;;;;;;22.31;100.00;97728.88;5040820;28;20311;-65
2021/07/19 03:47:28;;;;;;;3.30;2.90;;;;;;;22.05;100.00;97660.72;5035661;28;20239;-65
2021/07/19 03:49:55;;;;;;;3.50;3.20;;;;;;;22.40;100.00;97717.22;5043069;28;20312;-66
2021/07/19 03:52:22;;;;;;;3.13;2.87;;;;;;;22.45;100.00;97730.16;5027547;28;20235;-65
2021/07/19 03:54:49;;;;;;;3.27;3.03;;;;;;;22.45;100.00;97725.06;5041690;28;20312;-63
2021/07/19 03:57:15;;;;;;;3.03;2.83;;;;;;;22.45;100.00;97731.06;5045367;28;20201;-66
2021/07/19 03:59:42;;;;;;;3.40;3.10;;;;;;;22.46;100.00;97731.91;5042262;28;20239;-65
2021/07/19 04:02:11;;;;;;;3.47;3.17;;;;;;;22.46;100.00;97735.34;5042453;28;20313;-66
2021/07/19 04:04:44;;;;;;;3.30;3.00;;;;;;;22.36;100.00;97717.97;5041897;28;20264;-67
2021/07/19 04:07:12;;;;;;;3.73;3.23;;;;;;;22.46;100.00;97732.78;5027540;28;20316;-65
2021/07/19 04:09:38;;;;;;;2.70;2.50;;;;;;;22.35;100.00;97729.03;5043809;28;20324;-67
2021/07/19 04:12:09;;;;;;;3.10;2.87;;;;;;;22.47;100.00;97736.22;5042200;28;20503;-66
2021/07/19 04:14:36;;;;;;;3.30;2.77;;;;;;;22.47;100.00;97731.94;5042094;28;20232;-65
2021/07/19 04:17:04;;;;;;;3.70;3.40;;;;;;;22.26;100.00;97698.03;5027250;28;20280;-65
2021/07/19 04:19:31;;;;;;;3.37;3.07;;;;;;;21.40;100.00;97554.69;5038891;28;20205;-66
2021/07/19 04:21:58;;;;;;;3.57;3.23;;;;;;;22.47;100.00;97724.25;5040204;28;20258;-66
2021/07/19 04:24:25;;;;;;;3.60;3.10;;;;;;;21.49;100.00;97554.09;5037399;28;20224;-65
2021/07/19 04:26:51;;;;;;;3.10;2.80;;;;;;;22.49;100.00;97719.19;5043843;28;20293;-67
2021/07/19 04:29:24;;;;;;;3.03;2.73;;;;;;;22.49;100.00;97725.19;5046454;28;20262;-66
2021/07/19 04:31:54;;;;;;;2.97;2.77;;;;;;;21.68;100.00;97597.31;5040694;28;20621;-67
2021/07/19 04:34:33;;;;;;;3.20;2.90;;;;;;;22.49;100.00;97722.63;5042245;28;20262;-66
2021/07/19 04:37:01;;;;;;;3.47;3.17;;;;;;;22.50;100.00;97718.38;5041202;28;20256;-67
2021/07/19 04:39:28;;;;;;;2.83;2.63;;;;;;;22.44;100.00;97716.50;5041873;28;20205;-65
2021/07/19 04:41:55;;;;;;;3.37;3.07;;;;;;;22.50;100.00;97720.94;5039136;28;20364;-65
2021/07/19 04:44:22;;;;;;;3.10;2.80;;;;;;;22.51;100.00;97721.00;5044198;28;20207;-65
2021/07/19 04:46:51;;;;;;;3.47;3.17;;;;;;;22.51;100.00;97722.69;5038320;28;20282;-65
2021/07/19 04:49:18;;;;;;;8.43;4.23;;;;;;;22.51;100.00;97722.69;5042011;28;20233;-65
2021/07/19 04:51:46;;;;;;;6.47;5.17;;;;;;;22.51;100.00;97722.69;5041286;28;20311;-66
2021/07/19 04:54:25;;;;;;;7.00;6.10;;;;;;;21.64;100.00;97567.34;5041800;28;20231;-65
2021/07/19 04:56:59;;;;;;;7.17;6.00;;;;;;;22.51;100.00;97730.38;5043147;28;20223;-66
2021/07/19 04:59:28;;;;;;;10.30;5.70;;;;;;;22.36;100.00;97696.63;5042316;28;20201;-66
2021/07/19 05:01:55;;;;;;;8.30;5.87;;;;;;;22.34;100.00;97695.69;5038595;28;20298;-65
2021/07/19 05:04:25;;;;;;;9.83;6.27;;;;;;;22.51;100.00;97731.25;5021249;28;20205;-66
2021/07/19 05:06:52;;;;;;;14.37;6.27;;;;;;;22.51;100.00;97731.25;5039754;28;20254;-64
2021/07/19 05:09:19;;;;;;;7.80;5.50;;;;;;;22.47;100.00;97720.84;5037211;28;20248;-65
2021/07/19 05:11:46;;;;;;;6.33;4.67;;;;;;;22.52;100.00;97724.41;5041648;28;20330;-66
2021/07/19 05:14:13;;;;;;;5.00;4.50;;;;;;;22.53;100.00;97726.19;5026069;28;20228;-65
2021/07/19 05:16:40;;;;;;;5.37;4.07;;;;;;;22.52;100.00;97722.75;5044166;28;20608;-65
2021/07/19 05:19:06;;;;;;;5.30;4.40;;;;;;;22.52;100.00;97727.88;5043177;28;20204;-65
2021/07/19 05:21:34;;;;;;;8.17;4.40;;;;;;;22.53;100.00;97723.63;5030426;28;20285;-63
2021/07/19 05:24:01;;;;;;;5.10;4.50;;;;;;;22.43;100.00;97701.06;5039944;28;20282;-65
2021/07/19 05:26:27;;;;;;;5.20;4.53;;;;;;;22.45;100.00;97709.69;5042149;28;20274;-65
2021/07/19 05:28:56;;;;;;;5.03;4.00;;;;;;;22.53;100.00;97719.34;5041347;28;20674;-66
2021/07/19 05:31:23;;;;;;;4.70;4.30;;;;;;;22.54;100.00;97722.78;5043489;28;20745;-65
2021/07/19 05:33:50;;;;;;;6.63;4.87;;;;;;;22.54;100.00;97717.66;5038193;28;20240;-64
2021/07/19 05:36:17;;;;;;;5.67;4.63;;;;;;;22.54;100.00;97718.53;5045534;28;20319;-65
2021/07/19 05:38:43;;;;;;;4.87;4.03;;;;;;;22.55;100.00;97717.69;5042433;28;20235;-62
2021/07/19 05:41:10;;;;;;;4.70;4.10;;;;;;;22.55;100.00;97719.38;5038359;28;20225;-65
2021/07/19 05:43:37;;;;;;;4.43;4.03;;;;;;;22.55;100.00;97716.81;5037560;28;20691;-65
2021/07/19 05:46:03;;;;;;;10.07;4.43;;;;;;;22.55;100.00;97717.69;5038250;28;20307;-63
2021/07/19 05:48:30;;;;;;;4.93;4.17;;;;;;;22.55;100.00;97725.38;5044673;28;20291;-63
2021/07/19 05:50:57;;;;;;;4.93;4.43;;;;;;;22.55;100.00;97711.69;5038193;28;20288;-65
2021/07/19 05:53:24;;;;;;;4.70;4.10;;;;;;;22.56;100.00;97718.59;5038985;28;20233;-64
2021/07/19 05:55:52;;;;;;;5.07;4.30;;;;;;;22.55;100.00;97712.56;5044232;28;20228;-65
2021/07/19 05:58:18;;;;;;;6.97;4.43;;;;;;;22.36;100.00;97687.25;5038873;28;20225;-66
2021/07/19 06:00:45;;;;;;;5.80;4.27;;;;;;;22.55;100.00;97722.81;5035417;28;20244;-66
2021/07/19 06:03:12;;;;;;;4.10;3.77;;;;;;;22.56;100.00;97721.16;5039972;28;20601;-65
2021/07/19 06:05:39;;;;;;;4.63;4.20;;;;;;;22.56;100.00;97722.00;5037400;28;20267;-65
2021/07/19 06:08:05;;;;;;;5.80;4.60;;;;;;;22.56;100.00;97718.59;5044098;28;20285;-66
2021/07/19 06:10:32;;;;;;;6.30;4.60;;;;;;;22.55;100.00;97720.25;5045057;28;20293;-66
2021/07/19 06:12:59;;;;;;;4.40;4.00;;;;;;;22.56;100.00;97718.59;5043891;28;20255;-67
2021/07/19 06:15:25;;;;;;;4.87;4.07;;;;;;;22.56;100.00;97719.44;5036511;28;20218;-65
2021/07/19 06:17:52;;;;;;;4.53;4.13;;;;;;;22.56;100.00;97721.16;5044196;28;20205;-66
2021/07/19 06:20:21;;;;;;;9.73;4.67;;;;;;;22.51;100.00;97707.34;5040509;28;20292;-64
2021/07/19 06:22:47;;;;;;;3.90;3.60;;;;;;;22.57;100.00;97712.63;5025737;28;20291;-66
2021/07/19 06:25:15;;;;;;;4.57;4.10;;;;;;;22.56;100.00;97711.75;5038314;28;20544;-64
2021/07/19 06:27:42;;;;;;;4.73;4.03;;;;;;;22.57;100.00;97720.31;5038961;28;20284;-65
2021/07/19 06:30:10;;;;;;;4.63;4.20;;;;;;;22.57;100.00;97717.75;5033532;28;20280;-66
2021/07/19 06:32:36;;;;;;;4.40;4.00;;;;;;;22.56;100.00;97719.44;5024879;28;20232;-66
2021/07/19 06:35:04;;;;;;;5.63;4.20;;;;;;;22.57;100.00;97710.94;5038317;28;20324;-67
2021/07/19 06:37:31;;;;;;;4.67;3.90;;;;;;;22.55;100.00;97710.03;5013294;22;20426;-62
2021/07/19 06:39:57;;;;;;;4.47;4.00;;;;;;;22.57;100.00;97710.94;4964962;28;20239;-64
2021/07/19 06:42:24;;;;;;;4.77;4.37;;;;;;;22.58;100.00;97722.03;4972678;28;20242;-62
2021/07/19 06:44:54;;;;;;;4.23;3.83;;;;;;;22.58;100.00;97722.91;4964463;28;20207;-62
2021/07/19 06:47:21;;;;;;;4.30;3.90;;;;;;;22.58;100.00;97720.34;4960473;28;20236;-61
2021/07/19 06:49:47;;;;;;;4.67;4.07;;;;;;;22.54;100.00;97709.97;4923474;28;20232;-65
2021/07/19 06:52:14;;;;;;;4.43;4.00;;;;;;;22.58;100.00;97710.09;4940544;28;20235;-65
2021/07/19 06:54:41;;;;;;;7.43;4.17;;;;;;;22.58;100.00;97707.53;4963807;28;20241;-65
2021/07/19 06:57:07;;;;;;;4.97;4.30;;;;;;;22.59;100.00;97716.94;4948142;28;20219;-63
2021/07/19 06:59:34;;;;;;;5.63;3.90;;;;;;;22.57;100.00;97707.50;4946592;28;20527;-63
2021/07/19 07:02:01;;;;;;;5.03;3.57;;;;;;;22.59;100.00;97716.94;4962344;28;20751;-62
2021/07/19 07:04:28;;;;;;;5.53;4.50;;;;;;;22.60;100.00;97710.16;4964359;28;20515;-62
2021/07/19 07:06:54;;;;;;;4.30;3.90;;;;;;;22.58;100.00;97712.66;4963878;28;20311;-63
2021/07/19 07:09:21;;;;;;;4.07;3.70;;;;;;;22.58;100.00;97709.22;4961585;28;20262;-64
2021/07/19 07:11:47;;;;;;;5.27;4.47;;;;;;;22.59;100.00;97711.84;4961453;28;20231;-62
2021/07/19 07:14:14;;;;;;;4.33;3.90;;;;;;;22.60;100.00;97710.16;4945099;28;20239;-61
2021/07/19 07:16:41;;;;;;;4.63;4.17;;;;;;;22.60;100.00;97708.47;4963585;28;20227;-63
2021/07/19 07:19:08;;;;;;;4.20;3.77;;;;;;;22.60;100.00;97708.47;4960499;28;20204;-65
2021/07/19 07:21:34;;;;;;;4.20;3.80;;;;;;;22.54;100.00;97703.16;4959821;28;20239;-62
2021/07/19 07:24:01;;;;;;;4.37;3.97;;;;;;;22.54;100.00;97708.28;4960888;28;20228;-63
2021/07/19 07:26:27;;;;;;;3.83;3.53;;;;;;;22.54;100.00;97710.84;4947689;28;20220;-64
2021/07/19 07:28:54;;;;;;;4.60;3.80;;;;;;;22.53;100.00;97708.25;4961485;28;20686;-65
2021/07/19 07:31:26;;;;;;;4.43;4.03;;;;;;;22.51;100.00;97705.66;4962385;28;20258;-63
2021/07/19 07:33:55;;;;;;;4.57;3.90;;;;;;;22.43;100.00;97691.72;4965095;28;20631;-61
2021/07/19 07:36:23;;;;;;;4.20;3.80;;;;;;;22.43;100.00;97695.94;4941279;28;20318;-62
2021/07/19 07:38:50;;;;;;;4.27;3.87;;;;;;;22.46;100.00;97696.91;4944756;28;20279;-64
2021/07/19 07:41:17;;;;;;;4.40;4.00;;;;;;;22.46;100.00;97696.91;4956954;28;20296;-65
2021/07/19 07:43:43;;;;;;;4.30;3.90;;;;;;;22.45;100.00;97700.31;4958544;28;20792;-61
2021/07/19 07:46:11;;;;;;;4.03;3.73;;;;;;;22.43;100.00;97701.97;4960463;28;20314;-62
2021/07/19 07:48:37;;;;;;;4.20;3.80;;;;;;;22.44;100.00;97707.97;4944384;28;20200;-64
2021/07/19 07:51:08;;;;;;;4.23;3.83;;;;;;;22.42;100.00;97704.47;4959010;28;20745;-63
2021/07/19 07:53:34;;;;;;;4.40;4.00;;;;;;;22.36;100.00;97691.50;4958840;28;20283;-60
2021/07/19 07:56:01;;;;;;;3.83;3.53;;;;;;;22.40;100.00;97701.00;4935875;28;20228;-65
2021/07/19 07:58:28;;;;;;;3.67;3.37;;;;;;;22.39;100.00;97689.03;4961251;28;20262;-64
2021/07/19 08:00:55;;;;;;;4.03;3.73;;;;;;;22.40;100.00;97698.44;4958329;28;20298;-61
2021/07/19 08:03:22;;;;;;;3.77;3.47;;;;;;;22.38;100.00;97694.97;4958956;28;20753;-62
2021/07/19 08:05:48;;;;;;;3.83;3.53;;;;;;;22.37;100.00;97691.53;4957489;28;20260;-63
2021/07/19 08:08:15;;;;;;;3.50;3.20;;;;;;;22.36;100.00;97686.38;4961671;28;20651;-63
2021/07/19 08:10:41;;;;;;;4.33;3.70;;;;;;;22.36;100.00;97692.38;4967399;28;20231;-62
2021/07/19 08:13:08;;;;;;;3.80;3.50;;;;;;;22.35;100.00;97693.19;4966777;28;20232;-65
2021/07/19 08:15:35;;;;;;;4.53;3.90;;;;;;;22.34;100.00;97683.78;4948345;28;20236;-62
2021/07/19 08:18:02;;;;;;;3.93;3.63;;;;;;;22.32;100.00;97682.00;4965568;28;20285;-61
2021/07/19 08:20:29;;;;;;;4.00;3.70;;;;;;;22.35;100.00;97684.66;4960779;28;20254;-66
2021/07/19 08:22:55;;;;;;;3.83;3.43;;;;;;;22.35;100.00;97685.50;4964197;28;20238;-62
2021/07/19 08:25:22;;;;;;;4.03;3.63;;;;;;;22.37;100.00;97688.09;4963877;28;20242;-65
2021/07/19 08:27:48;;;;;;;4.77;3.83;;;;;;;22.39;100.00;97686.47;4962220;28;20227;-62
2021/07/19 08:30:16;;;;;;;4.27;3.57;;;;;;;22.40;100.00;97678.81;4960625;28;20211;-66
2021/07/19 08:32:42;;;;;;;3.90;3.60;;;;;;;22.38;100.00;97669.38;4962602;28;20282;-63
2021/07/19 08:35:10;;;;;;;3.80;3.50;;;;;;;22.41;100.00;97672.88;4941950;28;20208;-65
2021/07/19 08:37:46;;;;;;;4.07;3.70;;;;;;;22.37;100.00;97665.94;4957485;28;20678;-64
2021/07/19 08:40:15;;;;;;;3.67;3.37;;;;;;;22.43;100.00;97671.22;4919458;28;20273;-64
2021/07/19 08:42:41;;;;;;;3.50;3.20;;;;;;;22.44;100.00;97667.81;4958878;28;20227;-64
2021/07/19 08:45:09;;;;;;;4.10;3.70;;;;;;;22.44;100.00;97657.59;4957573;28;20255;-66
2021/07/19 08:47:40;;;;;;;4.00;3.40;;;;;;;22.46;100.00;97665.31;4962271;28;20254;-64
2021/07/19 08:50:08;;;;;;;3.60;3.30;;;;;;;22.46;100.00;97658.50;4942078;28;20208;-65
2021/07/19 08:52:35;;;;;;;4.27;3.87;;;;;;;22.47;100.00;97669.63;4959713;28;20704;-63
2021/07/19 08:55:06;;;;;;;4.10;3.70;;;;;;;22.45;100.00;97659.34;4960580;28;20200;-64
2021/07/19 08:57:33;;;;;;;3.63;3.33;;;;;;;22.49;100.00;97657.72;4960176;28;20326;-64
2021/07/19 09:00:05;;;;;;;3.87;3.57;;;;;;;22.49;100.00;97663.72;4954482;28;20255;-63
2021/07/19 09:02:31;;;;;;;4.03;3.63;;;;;;;22.46;100.00;97650.81;4965402;28;20667;-66
2021/07/19 09:04:58;;;;;;;4.07;3.50;;;;;;;22.48;100.00;97656.88;4956404;28;20220;-62
2021/07/19 09:07:25;;;;;;;3.87;3.57;;;;;;;22.49;100.00;97648.34;4963347;28;20255;-64
2021/07/19 09:09:51;;;;;;;3.30;3.00;;;;;;;22.51;100.00;97654.41;4945168;28;20306;-62
2021/07/19 09:12:43;;;;;;;5.80;3.67;;;;;;;22.52;100.00;97653.59;4964907;28;20973;-65
2021/07/19 09:15:11;;;;;;;5.00;3.70;;;;;;;22.47;100.00;97644.00;4958172;28;20262;-63
2021/07/19 09:17:38;;;;;;;3.73;3.43;;;;;;;22.53;100.00;97654.47;4947883;28;20322;-63
2021/07/19 09:20:09;;;;;;;3.67;3.37;;;;;;;22.52;100.00;97645.03;4945559;28;20231;-65
2021/07/19 09:22:36;;;;;;;3.70;3.40;;;;;;;21.95;100.00;97543.53;4962309;28;20298;-63
2021/07/19 09:25:13;;;;;;;4.00;3.63;;;;;;;22.54;100.00;97643.38;4944215;28;20335;-65
2021/07/19 09:28:04;;;;;;;3.70;3.20;;;;;;;22.54;100.00;97639.13;4955180;28;20250;-63
2021/07/19 09:30:35;;;;;;;3.33;3.13;;;;;;;22.54;100.00;97644.25;4956499;28;20238;-64
2021/07/19 09:33:07;;;;;;;3.73;3.43;;;;;;;22.55;100.00;97647.66;4961751;28;20309;-63
2021/07/19 09:35:35;;;;;;;3.53;3.23;;;;;;;22.56;100.00;97641.75;4943373;28;20227;-66
2021/07/19 09:38:06;;;;;;;3.70;3.40;;;;;;;22.55;100.00;97639.97;4959572;28;20255;-66
2021/07/19 09:40:33;;;;;;;3.77;3.47;;;;;;;22.54;100.00;97643.38;4962557;28;20228;-61
2021/07/19 09:43:00;;;;;;;3.30;3.00;;;;;;;22.56;100.00;97639.19;4961688;28;20204;-66
2021/07/19 09:45:31;;;;;;;4.13;3.20;;;;;;;22.56;100.00;97642.59;4961806;28;20255;-62
2021/07/19 09:48:01;;;;;;;3.70;3.40;;;;;;;22.56;100.00;97627.22;4961154;28;20306;-63
2021/07/19 09:50:44;;;;;;;3.47;3.17;;;;;;;22.57;100.00;97641.78;4943815;28;20299;-60
2021/07/19 09:53:11;;;;;;;3.83;3.53;;;;;;;22.52;100.00;97630.53;4959710;28;20231;-65
2021/07/19 09:55:38;;;;;;;3.60;3.30;;;;;;;22.56;100.00;97634.91;4945762;28;20255;-64
2021/07/19 09:58:04;;;;;;;3.67;3.37;;;;;;;22.49;100.00;97622.72;4945495;28;20322;-62
2021/07/19 10:00:32;;;;;;;3.60;3.30;;;;;;;22.58;100.00;97635.81;4934010;28;20243;-65
2021/07/19 10:03:11;;;;;;;3.40;3.10;;;;;;;22.58;100.00;97637.50;4961122;28;20709;-66
2021/07/19 10:05:38;;;;;;;3.80;3.40;;;;;;;22.53;100.00;97629.69;4958019;28;20666;-63
2021/07/19 10:08:05;;;;;;;3.50;3.20;;;;;;;22.56;100.00;97629.78;4943400;28;20705;-61
2021/07/19 10:10:33;;;;;;;3.33;3.13;;;;;;;22.56;100.00;97632.34;4944700;28;20295;-63
2021/07/19 10:13:00;;;;;;;3.50;3.20;;;;;;;22.53;100.00;97619.44;4938618;28;20208;-65
2021/07/19 10:15:28;;;;;;;3.60;3.30;;;;;;;22.34;100.00;97593.28;4943214;28;20214;-59
2021/07/19 10:17:56;;;;;;;3.37;3.10;;;;;;;22.53;100.00;97624.56;4946042;28;20231;-63
2021/07/19 10:20:22;;;;;;;3.70;3.40;;;;;;;22.51;100.00;97628.81;4943062;28;20200;-63
2021/07/19 10:22:49;;;;;;;3.40;3.10;;;;;;;22.46;100.00;97608.97;4939992;28;20210;-64
2021/07/19 10:25:16;;;;;;;3.10;2.90;;;;;;;22.48;100.00;97621.00;4957948;28;20643;-65
2021/07/19 10:27:43;;;;;;;3.53;3.23;;;;;;;22.47;100.00;97614.13;4942225;28;20281;-61
2021/07/19 10:30:10;;;;;;;4.50;3.30;;;;;;;22.46;100.00;97614.97;4958362;28;20262;-62
2021/07/19 10:32:37;;;;;;;3.67;3.37;;;;;;;22.46;100.00;97614.09;4958371;28;20212;-66
2021/07/19 10:35:05;;;;;;;3.10;2.90;;;;;;;22.45;100.00;97608.13;4941784;28;20223;-64
2021/07/19 10:37:41;;;;;;;3.63;3.30;;;;;;;22.43;100.00;97601.19;4943899;28;20255;-64
2021/07/19 10:40:28;;;;;;;3.77;3.37;;;;;;;22.43;100.00;97611.44;4959599;28;20253;-64
2021/07/19 10:43:11;;;;;;;3.17;2.90;;;;;;;22.41;100.00;97606.28;4963906;28;20235;-61
2021/07/19 10:45:42;;;;;;;3.50;3.20;;;;;;;22.40;100.00;97599.44;4957759;28;20784;-66
2021/07/19 10:48:09;;;;;;;3.50;3.20;;;;;;;22.36;100.00;97589.94;4962438;28;20966;-63
2021/07/19 10:50:38;;;;;;;4.50;3.03;;;;;;;22.40;100.00;97596.88;4941424;28;20238;-63
2021/07/19 10:53:13;;;;;;;3.20;3.00;;;;;;;22.41;100.00;97597.75;4957999;28;20313;-64
2021/07/19 10:55:40;;;;;;;3.40;3.10;;;;;;;22.39;100.00;97601.94;4933310;28;20242;-67
2021/07/19 10:58:08;;;;;;;4.23;2.93;;;;;;;22.20;100.00;97569.84;4932387;28;20246;-64
2021/07/19 11:00:39;;;;;;;3.00;2.80;;;;;;;22.39;100.00;97607.06;4945589;28;20228;-64
2021/07/19 11:03:07;;;;;;;3.80;3.40;;;;;;;22.38;100.00;97595.97;4943497;28;20208;-62
2021/07/19 11:05:35;;;;;;;3.57;3.27;;;;;;;22.36;100.00;97597.63;4957743;28;20314;-63
2021/07/19 11:08:02;;;;;;;3.10;2.90;;;;;;;22.37;100.00;97595.91;4950227;28;20253;-63
2021/07/19 11:10:29;;;;;;;3.10;2.90;;;;;;;22.36;100.00;97594.19;4933010;28;20227;-64
2021/07/19 11:12:57;;;;;;;3.03;2.83;;;;;;;22.37;100.00;97599.34;4939731;28;20227;-63
2021/07/19 11:15:37;;;;;;;3.83;3.53;;;;;;;22.28;100.00;97577.75;4935327;28;20290;-65
2021/07/19 11:18:27;;;;;;;3.00;2.80;;;;;;;22.35;100.00;97584.78;4953969;28;20906;-63
2021/07/19 11:20:55;;;;;;;3.77;3.40;;;;;;;22.40;100.00;97586.63;4929146;28;20211;-64
2021/07/19 11:23:34;;;;;;;3.37;3.00;;;;;;;22.41;100.00;97583.22;4948950;28;20211;-66
2021/07/19 11:26:03;;;;;;;3.40;3.10;;;;;;;22.42;100.00;97574.75;4949280;28;20219;-63
2021/07/19 11:28:31;;;;;;;3.10;2.90;;;;;;;22.43;100.00;97573.03;4946776;28;20291;-62
2021/07/19 11:31:26;;;;;;;3.17;2.90;;;;;;;22.40;100.00;97570.38;4930402;28;20339;-62